createdAt,value
2023-02-16T00:01:13.726Z,35.93
2023-02-16T00:03:40.573Z,32.60
2023-02-16T00:06:07.594Z,34.43
2023-02-16T00:08:34.461Z,34.77
2023-02-16T00:11:19.653Z,32.73
2023-02-16T00:13:49.426Z,32.23
2023-02-16T00:16:21.834Z,33.80
2023-02-16T00:18:49.422Z,32.87
2023-02-16T00:21:18.732Z,30.53
2023-02-16T00:23:45.560Z,30.77
2023-02-16T00:26:24.630Z,29.50
2023-02-16T00:28:54.091Z,29.17
2023-02-16T00:31:24.015Z,29.60
2023-02-16T00:33:50.911Z,29.23
2023-02-16T00:36:17.661Z,27.40
2023-02-16T00:38:44.696Z,25.07
2023-02-16T00:41:39.247Z,25.37
2023-02-16T00:44:12.157Z,27.27
2023-02-16T00:46:38.931Z,29.10
2023-02-16T00:49:05.727Z,30.30
2023-02-16T00:51:32.455Z,33.17
2023-02-16T00:53:59.199Z,32.70
2023-02-16T00:56:25.980Z,32.50
2023-02-16T00:58:53.474Z,34.20
2023-02-16T01:01:24.644Z,30.87
2023-02-16T01:03:51.422Z,33.23
2023-02-16T01:06:36.504Z,33.30
2023-02-16T01:09:31.484Z,30.80
2023-02-16T01:11:58.465Z,33.43
2023-02-16T01:14:25.805Z,31.93
2023-02-16T01:16:52.805Z,31.67
2023-02-16T01:19:19.617Z,31.90
2023-02-16T01:21:46.303Z,32.07
2023-02-16T01:24:13.049Z,31.77
2023-02-16T01:26:42.855Z,32.20
2023-02-16T01:29:20.827Z,31.17
2023-02-16T01:31:47.795Z,31.93
2023-02-16T01:34:15.196Z,29.60
2023-02-16T01:36:47.492Z,30.20
2023-02-16T01:39:16.923Z,27.43
2023-02-16T01:41:58.426Z,27.80
2023-02-16T01:44:29.290Z,28.77
2023-02-16T01:47:16.875Z,27.97
2023-02-16T01:49:43.584Z,30.90
2023-02-16T01:52:27.353Z,28.60
2023-02-16T01:54:59.494Z,28.93
2023-02-16T01:57:43.695Z,31.73
2023-02-16T02:00:35.070Z,28.00
2023-02-16T02:03:21.951Z,29.73
2023-02-16T02:05:50.186Z,31.57
2023-02-16T02:08:38.491Z,28.77
2023-02-16T02:11:25.276Z,31.80
2023-02-16T02:14:13.175Z,30.57
2023-02-16T02:16:40.002Z,30.30
2023-02-16T02:19:06.743Z,28.13
2023-02-16T02:22:13.962Z,27.93
2023-02-16T02:25:14.527Z,28.23
2023-02-16T02:28:18.002Z,26.10
2023-02-16T02:31:08.980Z,27.17
2023-02-16T02:34:03.775Z,28.40
2023-02-16T02:36:50.781Z,28.03
2023-02-16T02:39:39.780Z,26.23
2023-02-16T02:42:09.540Z,26.90
2023-02-16T02:45:17.618Z,25.17
2023-02-16T02:47:47.029Z,23.10
2023-02-16T02:50:32.513Z,27.03
2023-02-16T02:53:03.517Z,23.90
2023-02-16T02:55:52.112Z,23.40
2023-02-16T02:58:40.858Z,27.63
2023-02-16T03:01:09.132Z,24.47
2023-02-16T03:03:43.002Z,24.83
2023-02-16T03:06:15.457Z,23.57
2023-02-16T03:08:45.821Z,22.03
2023-02-16T03:11:34.389Z,23.70
2023-02-16T03:14:15.512Z,24.83
2023-02-16T03:17:15.486Z,24.10
2023-02-16T03:20:02.999Z,28.10
2023-02-16T03:22:49.233Z,28.10
2023-02-16T03:25:35.283Z,25.97
2023-02-16T03:28:23.433Z,27.30
2023-02-16T03:30:51.820Z,28.93
2023-02-16T03:33:20.039Z,27.10
2023-02-16T03:35:47.916Z,27.13
2023-02-16T03:38:15.050Z,26.23
2023-02-16T03:40:45.170Z,27.20
2023-02-16T03:43:11.931Z,26.83
2023-02-16T03:45:41.680Z,25.10
2023-02-16T03:48:08.929Z,26.20
2023-02-16T03:50:35.620Z,26.90
2023-02-16T03:53:08.450Z,25.83
2023-02-16T03:55:39.525Z,26.77
2023-02-16T03:58:08.094Z,27.37
2023-02-16T04:00:36.048Z,26.33
2023-02-16T04:03:04.017Z,27.13
2023-02-16T04:05:30.830Z,28.30
2023-02-16T04:07:57.559Z,30.27
2023-02-16T04:10:25.002Z,29.13
2023-02-16T04:12:51.758Z,31.40
2023-02-16T04:15:21.938Z,28.30
2023-02-16T04:17:49.090Z,28.80
2023-02-16T04:20:21.205Z,27.90
2023-02-16T04:22:48.582Z,28.40
2023-02-16T04:25:16.288Z,26.03
2023-02-16T04:27:43.628Z,26.97
2023-02-16T04:30:16.841Z,29.00
2023-02-16T04:32:43.874Z,26.93
2023-02-16T04:35:10.748Z,26.23
2023-02-16T04:37:38.322Z,27.60
2023-02-16T04:40:07.273Z,25.83
2023-02-16T04:42:33.968Z,25.77
2023-02-16T04:45:00.704Z,26.07
2023-02-16T04:47:28.631Z,25.13
2023-02-16T04:49:55.463Z,24.30
2023-02-16T04:52:22.280Z,22.80
2023-02-16T04:54:49.213Z,23.13
2023-02-16T04:57:16.829Z,21.40
2023-02-16T04:59:43.592Z,21.63
2023-02-16T05:02:10.411Z,22.00
2023-02-16T05:04:37.616Z,21.20
2023-02-16T05:07:04.379Z,23.63
2023-02-16T05:09:31.144Z,24.10
2023-02-16T05:12:16.825Z,23.77
2023-02-16T05:14:45.181Z,22.10
2023-02-16T05:17:19.176Z,22.10
2023-02-16T05:19:48.431Z,23.40
2023-02-16T05:22:15.935Z,24.77
2023-02-16T05:24:43.362Z,23.43
2023-02-16T05:27:13.867Z,22.23
2023-02-16T05:29:40.751Z,24.53
2023-02-16T05:32:07.622Z,23.80
2023-02-16T05:34:34.457Z,22.30
2023-02-16T05:37:01.324Z,22.07
2023-02-16T05:39:28.243Z,23.00
2023-02-16T05:41:55.151Z,23.87
2023-02-16T05:44:22.001Z,22.53
2023-02-16T05:46:48.681Z,21.43
2023-02-16T05:49:15.907Z,22.30
2023-02-16T05:51:43.003Z,20.83
2023-02-16T05:56:49.521Z,20.03
2023-02-16T05:59:16.654Z,21.63
2023-02-16T06:01:44.579Z,22.37
2023-02-16T06:04:12.977Z,20.57
2023-02-16T06:06:40.359Z,22.20
2023-02-16T06:09:08.345Z,21.37
2023-02-16T06:11:35.810Z,22.00
2023-02-16T06:14:04.758Z,21.90
2023-02-16T06:16:32.808Z,21.43
2023-02-16T06:19:00.106Z,20.90
2023-02-16T06:21:27.348Z,23.77
2023-02-16T06:23:54.183Z,22.00
2023-02-16T06:26:21.459Z,22.90
2023-02-16T06:28:48.391Z,23.00
2023-02-16T06:31:15.213Z,22.03
2023-02-16T06:33:43.354Z,21.93
2023-02-16T06:36:10.385Z,20.93
2023-02-16T06:38:37.258Z,21.90
2023-02-16T06:41:04.513Z,23.17
2023-02-16T06:43:31.378Z,22.70
2023-02-16T06:45:58.235Z,21.40
2023-02-16T06:48:25.057Z,25.83
2023-02-16T06:51:00.506Z,20.37
2023-02-16T06:53:27.392Z,21.23
2023-02-16T06:56:04.595Z,21.30
2023-02-16T06:58:31.355Z,21.73
2023-02-16T07:00:58.176Z,22.90
2023-02-16T07:03:25.052Z,23.70
2023-02-16T07:05:51.759Z,25.87
2023-02-16T07:08:18.512Z,21.70
2023-02-16T07:10:49.994Z,22.80
2023-02-16T07:13:17.191Z,22.50
2023-02-16T07:15:43.976Z,23.13
2023-02-16T07:18:10.686Z,22.67
2023-02-16T07:20:37.933Z,23.77
2023-02-16T07:23:04.894Z,22.30
2023-02-16T07:25:31.651Z,21.10
2023-02-16T07:27:58.479Z,22.27
2023-02-16T07:30:25.418Z,21.37
2023-02-16T07:32:52.235Z,21.63
2023-02-16T07:35:19.070Z,22.33
2023-02-16T07:37:45.791Z,24.70
2023-02-16T07:40:13.455Z,21.27
2023-02-16T07:42:40.244Z,23.20
2023-02-16T07:45:07.303Z,21.30
2023-02-16T07:47:34.015Z,23.13
2023-02-16T07:50:00.760Z,23.27
2023-02-16T07:52:31.069Z,23.97
2023-02-16T07:55:01.564Z,21.77
2023-02-16T07:57:29.219Z,23.00
2023-02-16T07:59:56.654Z,24.03
2023-02-16T08:02:24.040Z,23.53
2023-02-16T08:04:53.850Z,24.23
2023-02-16T08:07:21.323Z,26.17
2023-02-16T08:09:48.318Z,23.77
2023-02-16T08:12:17.012Z,24.77
2023-02-16T08:14:44.697Z,23.63
2023-02-16T08:17:11.446Z,22.10
2023-02-16T08:19:38.610Z,22.70
2023-02-16T08:22:06.592Z,24.13
2023-02-16T08:24:34.272Z,23.37
2023-02-16T08:27:03.843Z,23.30
2023-02-16T08:29:31.440Z,23.77
2023-02-16T08:31:58.292Z,25.73
2023-02-16T08:34:26.337Z,24.23
2023-02-16T08:36:57.275Z,25.40
2023-02-16T08:39:27.946Z,22.07
2023-02-16T08:41:55.065Z,25.13
2023-02-16T08:44:23.870Z,24.53
2023-02-16T08:46:52.137Z,23.17
2023-02-16T08:49:22.102Z,22.90
2023-02-16T08:51:55.003Z,24.33
2023-02-16T08:54:29.920Z,23.77
2023-02-16T08:56:58.970Z,20.97
2023-02-16T08:59:28.968Z,22.00
2023-02-16T09:01:58.198Z,20.90
2023-02-16T09:04:25.696Z,21.87
2023-02-16T09:06:53.363Z,20.53
2023-02-16T09:09:20.161Z,21.27
2023-02-16T09:11:47.252Z,21.10
2023-02-16T09:14:14.621Z,22.10
2023-02-16T09:16:45.572Z,19.90
2023-02-16T09:19:19.052Z,19.93
2023-02-16T09:21:47.405Z,20.07
2023-02-16T09:24:14.421Z,18.73
2023-02-16T09:26:42.927Z,23.13
2023-02-16T09:29:12.376Z,19.30
2023-02-16T09:31:39.774Z,19.93
2023-02-16T09:34:16.093Z,18.37
2023-02-16T09:36:43.793Z,19.70
2023-02-16T09:39:11.009Z,21.03
2023-02-16T09:41:40.845Z,21.47
2023-02-16T09:44:16.690Z,19.00
2023-02-16T09:46:44.455Z,21.03
2023-02-16T09:49:28.216Z,19.57
2023-02-16T09:52:20.249Z,19.60
2023-02-16T09:54:54.481Z,19.30
2023-02-16T09:57:42.861Z,18.10
2023-02-16T10:00:31.612Z,19.27
2023-02-16T10:03:28.868Z,17.13
2023-02-16T10:06:13.784Z,18.27
2023-02-16T10:08:42.345Z,16.93
2023-02-16T10:11:42.033Z,16.37
2023-02-16T10:14:31.957Z,21.97
2023-02-16T10:17:16.832Z,18.93
2023-02-16T10:19:59.707Z,16.27
2023-02-16T10:22:38.564Z,20.40
2023-02-16T10:25:32.412Z,17.40
2023-02-16T10:28:18.920Z,21.50
2023-02-16T10:30:56.928Z,17.53
2023-02-16T10:34:28.498Z,17.17
2023-02-16T10:37:16.594Z,16.90
2023-02-16T10:39:43.368Z,17.10
2023-02-16T10:42:21.172Z,15.37
2023-02-16T10:45:11.609Z,18.30
2023-02-16T10:47:42.132Z,14.70
2023-02-16T10:50:22.986Z,13.90
2023-02-16T10:52:51.709Z,14.03
2023-02-16T10:55:18.493Z,14.63
2023-02-16T10:57:53.508Z,15.07
2023-02-16T11:00:27.138Z,11.20
2023-02-16T11:02:54.023Z,11.93
2023-02-16T11:05:27.454Z,10.43
2023-02-16T11:08:01.557Z,12.30
2023-02-16T11:10:57.660Z,16.30
2023-02-16T11:13:29.207Z,14.30
2023-02-16T11:16:03.097Z,11.97
2023-02-16T11:18:34.583Z,10.60
2023-02-16T11:21:01.489Z,12.43
2023-02-16T11:23:40.581Z,10.67
2023-02-16T11:26:10.316Z,12.77
2023-02-16T11:28:38.838Z,11.30
2023-02-16T11:31:28.760Z,10.60
2023-02-16T11:34:08.493Z,11.93
2023-02-16T11:36:39.362Z,10.10
2023-02-16T11:39:14.666Z,10.63
2023-02-16T11:41:57.104Z,9.53
2023-02-16T11:44:41.316Z,10.57
2023-02-16T11:47:23.202Z,8.47
2023-02-16T11:50:04.912Z,10.70
2023-02-16T11:52:32.641Z,8.73
2023-02-16T11:55:02.105Z,8.87
2023-02-16T11:57:35.801Z,12.70
2023-02-16T12:00:09.666Z,10.50
2023-02-16T12:02:48.626Z,9.70
2023-02-16T12:05:21.832Z,8.50
2023-02-16T12:08:35.188Z,9.37
2023-02-16T12:11:14.251Z,9.03
2023-02-16T12:13:46.437Z,11.53
2023-02-16T12:16:22.047Z,10.83
2023-02-16T12:19:16.790Z,8.20
2023-02-16T12:21:49.480Z,9.63
2023-02-16T12:24:38.431Z,10.73
2023-02-16T12:27:21.415Z,8.87
2023-02-16T12:30:09.871Z,8.70
2023-02-16T12:32:44.861Z,9.57
2023-02-16T12:35:17.513Z,10.87
2023-02-16T12:38:08.596Z,9.37
2023-02-16T12:40:43.058Z,9.00
2023-02-16T12:43:28.108Z,9.67
2023-02-16T12:45:56.529Z,8.20
2023-02-16T12:48:40.150Z,8.07
2023-02-16T12:51:12.855Z,8.90
2023-02-16T12:53:56.946Z,9.67
2023-02-16T12:56:33.167Z,8.23
2023-02-16T12:59:14.457Z,9.07
2023-02-16T13:01:43.014Z,10.77
2023-02-16T13:04:33.913Z,8.93
2023-02-16T13:07:22.763Z,9.90
2023-02-16T13:09:52.438Z,9.43
2023-02-16T13:12:39.613Z,9.47
2023-02-16T13:15:20.916Z,8.13
2023-02-16T13:17:52.977Z,8.80
2023-02-16T13:20:23.427Z,9.03
2023-02-16T13:23:02.170Z,10.23
2023-02-16T13:26:05.624Z,10.00
2023-02-16T13:28:56.013Z,10.70
2023-02-16T13:31:55.214Z,8.27
2023-02-16T13:34:52.473Z,9.50
2023-02-16T13:37:52.357Z,9.10
2023-02-16T13:40:47.104Z,10.50
2023-02-16T13:43:20.928Z,9.40
2023-02-16T13:45:53.648Z,8.93
2023-02-16T13:48:30.951Z,10.47
2023-02-16T13:51:14.023Z,8.93
2023-02-16T13:53:43.801Z,7.87
2023-02-16T13:56:31.689Z,10.43
2023-02-16T13:59:20.023Z,9.13
2023-02-16T14:01:51.786Z,9.57
2023-02-16T14:04:38.711Z,10.67
2023-02-16T14:07:07.333Z,13.23
2023-02-16T14:09:37.123Z,10.83
2023-02-16T14:12:16.635Z,10.63
2023-02-16T14:14:43.408Z,9.67
2023-02-16T14:17:22.438Z,10.00
2023-02-16T14:19:55.291Z,12.10
2023-02-16T14:22:29.300Z,10.40
2023-02-16T14:25:00.062Z,12.10
2023-02-16T14:27:47.810Z,11.33
2023-02-16T14:30:20.938Z,10.00
2023-02-16T14:32:52.807Z,10.83
2023-02-16T14:35:28.059Z,9.57
2023-02-16T14:37:56.992Z,9.67
2023-02-16T14:40:55.344Z,11.40
2023-02-16T14:43:41.622Z,10.40
2023-02-16T14:46:46.062Z,10.80
2023-02-16T14:49:31.108Z,10.03
2023-02-16T14:52:19.435Z,17.00
2023-02-16T14:55:20.776Z,9.00
2023-02-16T14:57:55.772Z,11.30
2023-02-16T15:00:33.714Z,10.80
2023-02-16T15:03:03.966Z,9.90
2023-02-16T15:05:36.790Z,11.33
2023-02-16T15:08:18.977Z,8.50
2023-02-16T15:10:48.581Z,13.20
2023-02-16T15:13:27.667Z,9.27
2023-02-16T15:15:56.939Z,11.33
2023-02-16T15:18:47.689Z,10.20
2023-02-16T15:21:24.105Z,9.80
2023-02-16T15:23:54.045Z,9.10
2023-02-16T15:26:26.096Z,10.47
2023-02-16T15:29:02.235Z,11.73
2023-02-16T15:31:33.233Z,9.37
2023-02-16T15:34:05.626Z,10.23
2023-02-16T15:36:36.548Z,8.80
2023-02-16T15:39:13.429Z,9.17
2023-02-16T15:41:46.374Z,10.67
2023-02-16T15:44:36.827Z,11.40
2023-02-16T15:47:20.842Z,11.17
2023-02-16T15:49:47.822Z,8.87
2023-02-16T15:52:16.927Z,9.63
2023-02-16T15:54:44.992Z,8.97
2023-02-16T15:57:32.082Z,11.23
2023-02-16T16:00:04.077Z,11.87
2023-02-16T16:02:38.572Z,10.80
2023-02-16T16:05:09.763Z,10.60
2023-02-16T16:07:41.785Z,11.37
2023-02-16T16:10:12.110Z,11.50
2023-02-16T16:12:39.174Z,8.87
2023-02-16T16:15:06.660Z,9.50
2023-02-16T16:17:37.488Z,10.77
2023-02-16T16:20:30.524Z,11.80
2023-02-16T16:23:15.609Z,11.00
2023-02-16T16:25:47.992Z,10.00
2023-02-16T16:28:35.812Z,10.07
2023-02-16T16:31:17.902Z,11.37
2023-02-16T16:33:56.566Z,9.97
2023-02-16T16:36:41.096Z,11.70
2023-02-16T16:39:13.638Z,11.90
2023-02-16T16:41:41.518Z,11.13
2023-02-16T16:44:28.488Z,10.00
2023-02-16T16:46:55.183Z,8.80
2023-02-16T16:49:22.021Z,7.93
2023-02-16T16:51:52.707Z,9.70
2023-02-16T16:54:22.324Z,8.17
2023-02-16T16:56:49.017Z,7.50
2023-02-16T16:59:16.898Z,7.70
2023-02-16T17:01:46.015Z,8.37
2023-02-16T17:04:12.821Z,7.63
2023-02-16T17:06:39.530Z,7.80
2023-02-16T17:09:06.337Z,7.17
2023-02-16T17:11:35.327Z,7.40
2023-02-16T17:14:17.252Z,6.93
2023-02-16T17:16:46.958Z,7.33
2023-02-16T17:19:16.104Z,10.63
2023-02-16T17:21:43.391Z,10.90
2023-02-16T17:24:10.327Z,7.83
2023-02-16T17:26:37.895Z,10.93
2023-02-16T17:29:06.316Z,7.90
2023-02-16T17:31:34.056Z,6.37
2023-02-16T17:34:01.185Z,6.70
2023-02-16T17:36:28.330Z,5.57
2023-02-16T17:38:55.697Z,8.93
2023-02-16T17:41:29.848Z,7.07
2023-02-16T17:43:56.782Z,8.67
2023-02-16T17:46:25.554Z,7.20
2023-02-16T17:48:55.296Z,10.97
2023-02-16T17:51:25.167Z,8.90
2023-02-16T17:53:51.990Z,8.77
2023-02-16T17:56:21.678Z,7.50
2023-02-16T17:58:48.996Z,7.23
2023-02-16T18:01:17.611Z,7.43
2023-02-16T18:03:44.827Z,10.60
2023-02-16T18:06:17.024Z,6.90
2023-02-16T18:08:44.645Z,7.13
2023-02-16T18:11:12.222Z,6.90
2023-02-16T18:13:39.240Z,7.50
2023-02-16T18:16:07.553Z,8.07
2023-02-16T18:18:36.805Z,7.50
2023-02-16T18:21:03.858Z,8.43
2023-02-16T18:23:30.711Z,9.53
2023-02-16T18:25:57.690Z,12.10
2023-02-16T18:28:30.849Z,11.20
2023-02-16T18:30:58.228Z,8.43
2023-02-16T18:33:25.669Z,9.17
2023-02-16T18:35:57.219Z,10.10
2023-02-16T18:38:24.956Z,9.33
2023-02-16T18:40:53.810Z,8.80
2023-02-16T18:43:21.194Z,8.00
2023-02-16T18:45:48.564Z,10.30
2023-02-16T18:48:15.504Z,8.50
2023-02-16T18:50:42.393Z,9.37
2023-02-16T18:53:09.294Z,9.40
2023-02-16T18:55:36.245Z,9.77
2023-02-16T18:58:07.734Z,9.30
2023-02-16T19:00:35.946Z,9.80
2023-02-16T19:03:03.156Z,10.33
2023-02-16T19:05:30.099Z,10.60
2023-02-16T19:07:56.941Z,12.63
2023-02-16T19:10:25.044Z,9.57
2023-02-16T19:12:52.234Z,9.77
2023-02-16T19:15:19.161Z,10.10
2023-02-16T19:17:45.915Z,12.80
2023-02-16T19:20:16.868Z,11.07
2023-02-16T19:22:44.625Z,10.67
2023-02-16T19:25:11.416Z,11.83
2023-02-16T19:27:38.253Z,9.77
2023-02-16T19:30:06.542Z,14.93
2023-02-16T19:32:33.375Z,11.83
2023-02-16T19:35:00.340Z,6.43
2023-02-16T19:37:27.140Z,7.63
2023-02-16T19:39:54.018Z,16.00
2023-02-16T19:42:21.643Z,12.00
2023-02-16T19:44:48.571Z,12.87
2023-02-16T19:47:15.494Z,10.93
2023-02-16T19:49:42.816Z,10.53
2023-02-16T19:52:09.704Z,9.23
2023-02-16T19:54:37.171Z,12.43
2023-02-16T19:57:04.813Z,11.40
2023-02-16T19:59:32.713Z,10.27
2023-02-16T20:01:59.761Z,10.00
2023-02-16T20:04:26.621Z,8.40
2023-02-16T20:06:56.545Z,8.83
2023-02-16T20:09:24.380Z,8.60
2023-02-16T20:11:51.998Z,9.07
2023-02-16T20:14:18.915Z,8.47
2023-02-16T20:16:46.030Z,8.80
2023-02-16T20:19:12.929Z,9.90
2023-02-16T20:21:44.090Z,9.40
2023-02-16T20:24:11.792Z,11.33
2023-02-16T20:26:42.348Z,8.83
2023-02-16T20:29:11.463Z,9.67
2023-02-16T20:31:42.119Z,9.93
2023-02-16T20:34:10.038Z,10.67
2023-02-16T20:36:43.111Z,9.90
2023-02-16T20:39:09.950Z,11.20
2023-02-16T20:41:36.890Z,10.77
2023-02-16T20:44:04.552Z,10.60
2023-02-16T20:46:31.566Z,11.73
2023-02-16T20:48:58.333Z,10.00
2023-02-16T20:51:25.220Z,13.10
2023-02-16T20:53:52.145Z,8.83
2023-02-16T20:56:24.123Z,9.77
2023-02-16T20:58:53.000Z,9.20
2023-02-16T21:01:29.472Z,9.77
2023-02-16T21:03:58.157Z,9.63
2023-02-16T21:06:25.653Z,10.03
2023-02-16T21:08:56.078Z,11.17
2023-02-16T21:11:22.901Z,9.40
2023-02-16T21:13:49.675Z,9.47
2023-02-16T21:16:16.499Z,9.97
2023-02-16T21:18:43.857Z,10.60
2023-02-16T21:21:15.511Z,9.33
2023-02-16T21:23:44.350Z,8.83
2023-02-16T21:26:11.809Z,7.90
2023-02-16T21:28:41.209Z,7.83
2023-02-16T21:31:11.865Z,8.70
2023-02-16T21:33:39.346Z,8.33
2023-02-16T21:36:12.274Z,8.80
2023-02-16T21:38:40.188Z,9.27
2023-02-16T21:41:26.777Z,9.70
2023-02-16T21:43:59.407Z,8.00
2023-02-16T21:46:27.957Z,11.00
2023-02-16T21:48:57.305Z,10.33
2023-02-16T21:51:27.899Z,11.33
2023-02-16T21:53:55.449Z,10.33
2023-02-16T21:56:34.604Z,9.17
2023-02-16T21:59:01.461Z,9.50
2023-02-16T22:01:34.467Z,10.07
2023-02-16T22:04:02.464Z,7.63
2023-02-16T22:06:37.426Z,9.53
2023-02-16T22:09:08.644Z,8.73
2023-02-16T22:11:35.618Z,7.07
2023-02-16T22:14:03.229Z,6.27
2023-02-16T22:16:32.084Z,6.50
2023-02-16T22:19:02.049Z,6.57
2023-02-16T22:21:29.801Z,6.40
2023-02-16T22:23:57.634Z,6.37
2023-02-16T22:26:26.959Z,6.37
2023-02-16T22:28:54.461Z,6.63
2023-02-16T22:31:23.622Z,7.17
2023-02-16T22:34:04.881Z,5.47
2023-02-16T22:36:32.167Z,6.50
2023-02-16T22:38:59.085Z,8.33
2023-02-16T22:41:26.361Z,6.00
2023-02-16T22:43:57.325Z,7.40
2023-02-16T22:46:24.640Z,6.80
2023-02-16T22:48:52.110Z,5.57
2023-02-16T22:51:20.719Z,6.20
2023-02-16T22:53:48.051Z,12.70
2023-02-16T22:56:17.709Z,6.07
2023-02-16T22:58:44.908Z,6.30
2023-02-16T23:01:18.673Z,5.80
2023-02-16T23:03:59.123Z,7.17
2023-02-16T23:06:28.934Z,6.77
2023-02-16T23:09:01.855Z,6.40
2023-02-16T23:11:28.726Z,6.60
2023-02-16T23:13:55.877Z,7.33
2023-02-16T23:16:25.458Z,6.20
2023-02-16T23:18:52.296Z,6.50
2023-02-16T23:21:28.402Z,6.93
2023-02-16T23:23:55.864Z,6.30
2023-02-16T23:26:25.214Z,6.70
2023-02-16T23:28:54.412Z,5.43
2023-02-16T23:31:21.971Z,6.10
2023-02-16T23:33:49.483Z,6.77
2023-02-16T23:36:16.377Z,8.63
2023-02-16T23:38:43.289Z,6.20
2023-02-16T23:41:12.753Z,6.07
2023-02-16T23:43:39.600Z,5.63
2023-02-16T23:46:07.176Z,5.60
2023-02-16T23:48:34.163Z,5.17
2023-02-16T23:51:00.967Z,5.73
2023-02-16T23:53:28.683Z,5.60
2023-02-16T23:56:03.296Z,6.73
2023-02-16T23:58:34.938Z,6.00
